createdAt,value
2018-12-31T00:01:42.925Z,8.60
2018-12-31T00:04:16.244Z,7.90
2018-12-31T00:06:46.752Z,7.40
2018-12-31T00:09:17.302Z,6.10
2018-12-31T00:11:47.883Z,6.70
2018-12-31T00:14:18.393Z,6.20
2018-12-31T00:16:48.964Z,4.67
2018-12-31T00:19:19.500Z,7.40
2018-12-31T00:21:50.072Z,6.23
2018-12-31T00:24:20.562Z,6.83
2018-12-31T00:26:51.081Z,9.37
2018-12-31T00:29:21.645Z,10.30
2018-12-31T00:31:52.200Z,6.90
2018-12-31T00:34:22.746Z,13.50
2018-12-31T00:36:53.251Z,9.30
2018-12-31T00:39:23.760Z,4.90
2018-12-31T00:41:54.313Z,6.23
2018-12-31T00:44:24.873Z,7.20
2018-12-31T00:46:55.396Z,6.00
2018-12-31T00:49:25.927Z,6.43
2018-12-31T00:51:56.465Z,5.90
2018-12-31T00:54:26.987Z,5.27
2018-12-31T00:56:57.498Z,6.10
2018-12-31T00:59:28.049Z,6.13
2018-12-31T01:01:58.577Z,5.10
2018-12-31T01:04:29.114Z,8.53
2018-12-31T01:06:59.605Z,6.13
2018-12-31T01:09:30.206Z,6.07
2018-12-31T01:12:00.736Z,6.83
2018-12-31T01:14:31.238Z,7.27
2018-12-31T01:17:01.740Z,5.10
2018-12-31T01:19:32.282Z,5.60
2018-12-31T01:22:02.826Z,5.77
2018-12-31T01:24:33.326Z,4.30
2018-12-31T01:27:06.150Z,5.97
2018-12-31T01:29:36.672Z,4.83
2018-12-31T01:32:07.207Z,7.30
2018-12-31T01:34:37.755Z,8.40
2018-12-31T01:37:08.283Z,9.17
2018-12-31T01:39:38.861Z,5.87
2018-12-31T01:42:09.390Z,6.53
2018-12-31T01:44:39.943Z,5.00
2018-12-31T01:47:10.520Z,5.50
2018-12-31T01:49:41.124Z,3.57
2018-12-31T01:52:11.662Z,5.33
2018-12-31T01:54:43.179Z,6.50
2018-12-31T01:57:14.763Z,4.83
2018-12-31T01:59:46.272Z,4.53
2018-12-31T02:02:16.779Z,4.80
2018-12-31T02:04:49.726Z,4.40
2018-12-31T02:07:20.275Z,4.30
2018-12-31T02:09:50.857Z,5.87
2018-12-31T02:12:21.380Z,4.37
2018-12-31T02:14:54.968Z,6.33
2018-12-31T02:17:28.238Z,5.87
2018-12-31T02:19:58.800Z,10.73
2018-12-31T02:22:29.450Z,10.27
2018-12-31T02:24:59.962Z,5.63
2018-12-31T02:27:31.224Z,5.37
2018-12-31T02:30:01.731Z,5.63
2018-12-31T02:32:35.928Z,5.43
2018-12-31T02:35:06.558Z,5.17
2018-12-31T02:37:37.063Z,3.40
2018-12-31T02:40:07.761Z,5.87
2018-12-31T02:42:38.302Z,6.70
2018-12-31T02:45:09.108Z,4.23
2018-12-31T02:47:39.700Z,4.83
2018-12-31T02:50:10.253Z,8.33
2018-12-31T02:52:40.773Z,6.70
2018-12-31T02:55:11.378Z,4.70
2018-12-31T02:57:41.912Z,4.03
2018-12-31T03:00:12.486Z,4.90
2018-12-31T03:02:43.006Z,5.73
2018-12-31T03:05:13.544Z,4.10
2018-12-31T03:07:44.103Z,5.20
2018-12-31T03:10:14.601Z,5.17
2018-12-31T03:12:45.141Z,6.17
2018-12-31T03:15:15.943Z,4.07
2018-12-31T03:17:47.095Z,6.73
2018-12-31T03:20:17.632Z,5.13
2018-12-31T03:22:48.213Z,4.67
2018-12-31T03:25:18.740Z,5.30
2018-12-31T03:27:49.241Z,6.17
2018-12-31T03:30:19.790Z,4.27
2018-12-31T03:32:50.358Z,5.40
2018-12-31T03:35:21.062Z,11.83
2018-12-31T03:37:52.182Z,4.33
2018-12-31T03:40:22.695Z,5.00
2018-12-31T03:42:53.247Z,4.57
2018-12-31T03:45:23.789Z,5.47
2018-12-31T03:47:56.398Z,4.50
2018-12-31T03:50:26.589Z,5.23
2018-12-31T03:52:57.131Z,5.90
2018-12-31T03:55:27.678Z,3.60
2018-12-31T03:57:58.210Z,2.87
2018-12-31T04:00:28.722Z,3.40
2018-12-31T04:02:59.322Z,2.60
2018-12-31T04:05:29.862Z,3.83
2018-12-31T04:08:00.456Z,4.10
2018-12-31T04:10:30.984Z,3.97
2018-12-31T04:13:02.140Z,2.70
2018-12-31T04:15:32.640Z,3.43
2018-12-31T04:18:03.149Z,3.20
2018-12-31T04:20:33.661Z,2.70
2018-12-31T04:23:04.230Z,2.37
2018-12-31T04:25:34.757Z,3.30
2018-12-31T04:28:05.274Z,2.77
2018-12-31T04:30:35.859Z,3.37
2018-12-31T04:33:06.391Z,5.10
2018-12-31T04:35:37.452Z,3.67
2018-12-31T04:38:09.440Z,8.13
2018-12-31T04:40:40.561Z,7.80
2018-12-31T04:43:11.134Z,6.90
2018-12-31T04:45:41.642Z,5.80
2018-12-31T04:48:14.210Z,4.63
2018-12-31T04:50:44.763Z,5.13
2018-12-31T04:53:15.297Z,4.27
2018-12-31T04:55:45.843Z,5.17
2018-12-31T04:58:23.003Z,4.83
2018-12-31T05:00:49.051Z,4.57
2018-12-31T05:03:21.831Z,4.30
2018-12-31T05:05:52.338Z,9.00
2018-12-31T05:08:23.602Z,3.77
2018-12-31T05:10:54.118Z,4.00
2018-12-31T05:13:24.592Z,12.70
2018-12-31T05:15:55.759Z,5.30
2018-12-31T05:18:26.491Z,3.90
2018-12-31T05:20:57.689Z,2.97
2018-12-31T05:23:28.256Z,3.53
2018-12-31T05:25:58.791Z,6.87
2018-12-31T05:28:29.267Z,2.87
2018-12-31T05:30:59.898Z,3.50
2018-12-31T05:33:30.502Z,3.50
2018-12-31T05:36:01.714Z,10.60
2018-12-31T05:38:32.356Z,4.77
2018-12-31T05:41:03.597Z,5.33
2018-12-31T05:43:34.134Z,5.23
2018-12-31T05:46:04.650Z,4.20
2018-12-31T05:48:35.220Z,8.30
2018-12-31T05:51:07.307Z,4.07
2018-12-31T05:53:37.861Z,5.30
2018-12-31T05:56:08.390Z,6.90
2018-12-31T05:58:38.941Z,5.57
2018-12-31T06:01:10.697Z,4.27
2018-12-31T06:03:41.259Z,5.20
2018-12-31T06:06:11.825Z,3.27
2018-12-31T06:08:42.371Z,5.47
2018-12-31T06:11:12.938Z,3.20
2018-12-31T06:13:43.467Z,4.87
2018-12-31T06:16:14.024Z,4.90
2018-12-31T06:18:44.597Z,5.73
2018-12-31T06:21:15.108Z,22.00
2018-12-31T06:23:48.092Z,15.90
2018-12-31T06:26:18.617Z,10.20
2018-12-31T06:28:49.183Z,8.57
2018-12-31T06:31:19.711Z,5.87
2018-12-31T06:33:51.764Z,9.80
2018-12-31T06:36:22.287Z,4.50
2018-12-31T06:38:52.791Z,5.20
2018-12-31T06:41:23.335Z,6.67
2018-12-31T06:43:53.856Z,10.87
2018-12-31T06:46:24.316Z,9.73
2018-12-31T06:48:54.874Z,7.00
2018-12-31T06:51:25.377Z,7.73
2018-12-31T06:53:55.929Z,7.23
2018-12-31T06:56:26.503Z,6.43
2018-12-31T06:58:56.986Z,7.73
2018-12-31T07:01:27.552Z,7.77
2018-12-31T07:03:58.031Z,10.00
2018-12-31T07:06:28.644Z,7.87
2018-12-31T07:08:59.265Z,7.87
2018-12-31T07:11:33.422Z,5.20
2018-12-31T07:14:06.308Z,6.77
2018-12-31T07:16:41.247Z,10.33
2018-12-31T07:19:11.914Z,5.83
2018-12-31T07:21:42.447Z,5.70
2018-12-31T07:24:15.775Z,4.63
2018-12-31T07:26:46.303Z,5.90
2018-12-31T07:29:17.864Z,4.80
2018-12-31T07:31:48.466Z,5.60
2018-12-31T07:34:19.083Z,5.17
2018-12-31T07:36:49.655Z,21.63
2018-12-31T07:39:20.174Z,8.27
2018-12-31T07:41:50.718Z,5.47
2018-12-31T07:44:24.280Z,7.80
2018-12-31T07:46:54.819Z,6.47
2018-12-31T07:49:28.195Z,7.37
2018-12-31T07:51:58.730Z,8.70
2018-12-31T07:54:29.241Z,4.53
2018-12-31T07:56:59.827Z,6.60
2018-12-31T07:59:31.779Z,6.00
2018-12-31T08:02:02.298Z,5.50
2018-12-31T08:04:32.872Z,5.80
2018-12-31T08:07:03.418Z,6.53
2018-12-31T08:09:34.014Z,12.57
2018-12-31T08:12:04.506Z,9.33
2018-12-31T08:14:35.047Z,7.30
2018-12-31T08:17:05.588Z,7.27
2018-12-31T08:19:36.120Z,5.80
2018-12-31T08:22:06.690Z,6.03
2018-12-31T08:24:37.219Z,8.60
2018-12-31T08:27:07.773Z,7.53
2018-12-31T08:29:38.285Z,6.90
2018-12-31T08:32:08.883Z,8.13
2018-12-31T08:34:39.423Z,9.15
2018-12-31T08:37:09.967Z,13.27
2018-12-31T08:39:40.724Z,13.30
2018-12-31T08:42:11.237Z,8.70
2018-12-31T08:44:41.837Z,7.07
2018-12-31T08:47:13.640Z,7.40
2018-12-31T08:49:44.100Z,7.27
2018-12-31T08:52:14.849Z,6.17
2018-12-31T08:54:45.311Z,6.77
2018-12-31T08:57:22.282Z,5.30
2018-12-31T08:59:52.816Z,9.03
2018-12-31T09:02:23.355Z,6.20
2018-12-31T09:04:53.900Z,7.63
2018-12-31T09:07:24.439Z,83.03
2018-12-31T09:09:55.030Z,12.40
2018-12-31T09:12:25.623Z,7.60
2018-12-31T09:14:56.188Z,9.53
2018-12-31T09:17:26.730Z,5.37
2018-12-31T09:19:57.287Z,4.20
2018-12-31T09:22:27.807Z,7.50
2018-12-31T09:25:02.435Z,6.10
2018-12-31T09:27:35.887Z,8.03
2018-12-31T09:30:06.742Z,7.50
2018-12-31T09:32:40.507Z,8.37
2018-12-31T09:35:11.007Z,8.03
2018-12-31T09:37:41.555Z,6.57
2018-12-31T09:40:12.145Z,5.60
2018-12-31T09:42:42.627Z,8.47
2018-12-31T09:45:13.201Z,9.20
2018-12-31T09:47:46.497Z,8.10
2018-12-31T09:50:17.007Z,10.97
2018-12-31T09:52:50.400Z,7.33
2018-12-31T09:55:20.986Z,9.27
2018-12-31T09:57:54.536Z,6.73
2018-12-31T10:00:25.033Z,8.77
2018-12-31T10:02:55.526Z,7.03
2018-12-31T10:05:26.079Z,6.33
2018-12-31T10:07:56.620Z,6.43
2018-12-31T10:10:29.531Z,6.93
2018-12-31T10:13:00.056Z,6.80
2018-12-31T10:15:32.503Z,7.00
2018-12-31T10:18:03.022Z,8.00
2018-12-31T10:20:33.559Z,8.10
2018-12-31T10:23:04.068Z,5.20
2018-12-31T10:25:34.624Z,7.67
2018-12-31T10:28:07.509Z,10.53
2018-12-31T10:30:39.272Z,6.27
2018-12-31T10:33:09.817Z,8.83
2018-12-31T10:35:40.359Z,9.10
2018-12-31T10:38:10.905Z,58.37
2018-12-31T10:40:41.409Z,10.43
2018-12-31T10:43:11.947Z,19.53
2018-12-31T10:45:42.472Z,8.67
2018-12-31T10:48:13.024Z,7.77
2018-12-31T10:50:43.589Z,9.40
2018-12-31T10:53:14.089Z,8.90
2018-12-31T10:55:53.657Z,7.37
2018-12-31T10:58:24.210Z,7.70
2018-12-31T11:00:57.217Z,11.13
2018-12-31T11:03:27.800Z,9.63
2018-12-31T11:05:58.289Z,7.73
2018-12-31T11:08:28.830Z,6.03
2018-12-31T11:10:59.414Z,8.80
2018-12-31T11:13:29.901Z,5.77
2018-12-31T11:16:01.773Z,6.03
2018-12-31T11:18:32.307Z,6.20
2018-12-31T11:21:02.842Z,7.67
2018-12-31T11:23:33.428Z,8.03
2018-12-31T11:26:04.041Z,6.63
2018-12-31T11:28:34.542Z,8.50
2018-12-31T11:31:05.103Z,3.90
2018-12-31T11:33:35.626Z,5.53
2018-12-31T11:36:08.997Z,5.93
2018-12-31T11:38:39.490Z,5.30
2018-12-31T11:41:10.041Z,7.77
2018-12-31T11:43:40.567Z,4.87
2018-12-31T11:46:11.131Z,9.70
2018-12-31T11:48:41.688Z,5.43
2018-12-31T11:51:12.360Z,10.80
2018-12-31T11:53:42.847Z,6.70
2018-12-31T11:56:14.429Z,5.60
2018-12-31T11:58:44.981Z,6.80
2018-12-31T12:01:17.341Z,5.00
2018-12-31T12:03:47.897Z,8.23
2018-12-31T12:06:18.470Z,5.57
2018-12-31T12:08:49.009Z,13.13
2018-12-31T12:11:19.631Z,14.83
2018-12-31T12:13:50.097Z,11.57
2018-12-31T12:16:20.697Z,14.30
2018-12-31T12:18:51.273Z,15.27
2018-12-31T12:21:21.811Z,16.33
2018-12-31T12:23:52.379Z,11.10
2018-12-31T12:26:22.860Z,11.47
2018-12-31T12:28:53.461Z,7.13
2018-12-31T12:31:24.368Z,12.03
2018-12-31T12:33:54.882Z,8.80
2018-12-31T12:36:25.394Z,7.93
2018-12-31T12:38:56.161Z,7.63
2018-12-31T12:41:26.645Z,7.37
2018-12-31T12:43:57.553Z,5.33
2018-12-31T12:46:28.088Z,4.70
2018-12-31T12:48:58.613Z,3.47
2018-12-31T12:51:29.104Z,4.30
2018-12-31T12:53:59.670Z,3.27
2018-12-31T12:56:30.193Z,6.43
2018-12-31T12:59:00.767Z,3.87
2018-12-31T13:01:32.566Z,4.67
2018-12-31T13:04:03.133Z,2.87
2018-12-31T13:06:33.877Z,2.07
2018-12-31T13:09:05.184Z,2.20
2018-12-31T13:11:35.764Z,2.60
2018-12-31T13:14:06.314Z,2.10
2018-12-31T13:16:37.118Z,2.13
2018-12-31T13:19:07.672Z,1.60
2018-12-31T13:21:38.232Z,2.80
2018-12-31T13:24:18.894Z,2.27
2018-12-31T13:26:53.107Z,1.30
2018-12-31T13:29:23.901Z,2.73
2018-12-31T13:31:54.461Z,2.57
2018-12-31T13:34:24.977Z,7.10
2018-12-31T13:36:55.501Z,9.93
2018-12-31T13:39:26.078Z,2.67
2018-12-31T13:41:57.982Z,2.10
2018-12-31T13:44:28.553Z,3.30
2018-12-31T13:46:59.086Z,5.87
2018-12-31T13:49:30.843Z,4.30
2018-12-31T13:52:01.496Z,2.63
2018-12-31T13:54:32.074Z,1.57
2018-12-31T13:57:02.612Z,1.70
2018-12-31T13:59:33.457Z,2.17
2018-12-31T14:02:03.991Z,2.27
2018-12-31T14:04:34.509Z,3.57
2018-12-31T14:07:05.083Z,1.20
2018-12-31T14:09:35.626Z,7.10
2018-12-31T14:12:06.191Z,1.57
2018-12-31T14:14:36.784Z,2.10
2018-12-31T14:17:07.374Z,2.40
2018-12-31T14:19:38.008Z,2.13
2018-12-31T14:22:08.833Z,6.00
2018-12-31T14:24:40.179Z,3.23
2018-12-31T14:27:10.667Z,3.87
2018-12-31T14:29:41.218Z,3.07
2018-12-31T14:32:11.732Z,4.03
2018-12-31T14:34:42.333Z,2.27
2018-12-31T14:37:12.886Z,3.53
2018-12-31T14:39:43.352Z,2.17
2018-12-31T14:42:16.412Z,2.87
2018-12-31T14:44:46.225Z,5.80
2018-12-31T14:47:18.440Z,1.63
2018-12-31T14:49:49.155Z,4.40
2018-12-31T14:52:19.641Z,29.17
2018-12-31T14:54:50.482Z,31.53
2018-12-31T14:57:21.083Z,13.20
2018-12-31T14:59:51.664Z,5.50
2018-12-31T15:02:22.192Z,3.70
2018-12-31T15:04:52.681Z,2.23
2018-12-31T15:07:23.220Z,5.00
2018-12-31T15:09:53.800Z,79.70
2018-12-31T15:12:24.381Z,36.90
2018-12-31T15:14:54.987Z,6.90
2018-12-31T15:17:25.799Z,4.70
2018-12-31T15:19:56.273Z,89.27
2018-12-31T15:22:29.165Z,24.57
2018-12-31T15:24:59.166Z,58.77
2018-12-31T15:27:29.646Z,8.73
2018-12-31T15:30:00.267Z,7.67
2018-12-31T15:32:30.850Z,2.93
2018-12-31T15:35:01.437Z,4.60
2018-12-31T15:37:31.952Z,3.10
2018-12-31T15:40:02.519Z,8.93
2018-12-31T15:42:33.073Z,2.80
2018-12-31T15:45:03.591Z,2.47
2018-12-31T15:47:34.123Z,6.10
2018-12-31T15:50:07.945Z,4.63
2018-12-31T15:52:39.491Z,5.10
2018-12-31T15:55:10.102Z,9.70
2018-12-31T15:57:40.653Z,5.97
2018-12-31T16:00:12.194Z,6.87
2018-12-31T16:02:42.686Z,8.83
2018-12-31T16:05:13.262Z,5.30
2018-12-31T16:07:45.955Z,6.60
2018-12-31T16:10:16.060Z,17.43
2018-12-31T16:12:47.329Z,5.83
2018-12-31T16:15:17.866Z,6.20
2018-12-31T16:17:48.446Z,5.87
2018-12-31T16:20:19.073Z,5.73
2018-12-31T16:22:51.918Z,6.63
2018-12-31T16:25:23.131Z,9.03
2018-12-31T16:27:53.682Z,9.27
2018-12-31T16:30:24.276Z,4.70
2018-12-31T16:32:57.720Z,5.87
2018-12-31T16:35:28.347Z,7.50
2018-12-31T16:37:58.986Z,3.60
2018-12-31T16:40:29.585Z,5.90
2018-12-31T16:43:00.199Z,7.30
2018-12-31T16:45:31.445Z,8.73
2018-12-31T16:48:02.212Z,11.90
2018-12-31T16:50:32.824Z,11.63
2018-12-31T16:53:03.460Z,5.90
2018-12-31T16:55:34.212Z,9.07
2018-12-31T16:58:04.863Z,12.13
2018-12-31T17:00:35.403Z,10.30
2018-12-31T17:03:06.638Z,7.17
2018-12-31T17:05:37.280Z,5.03
2018-12-31T17:08:08.427Z,6.67
2018-12-31T17:10:39.077Z,7.87
2018-12-31T17:13:09.709Z,7.37
2018-12-31T17:15:40.389Z,14.10
2018-12-31T17:18:11.054Z,14.53
2018-12-31T17:20:42.156Z,10.10
2018-12-31T17:23:12.725Z,34.30
2018-12-31T17:25:43.356Z,20.10
2018-12-31T17:28:14.215Z,13.50
2018-12-31T17:30:44.968Z,7.90
2018-12-31T17:33:15.593Z,12.40
2018-12-31T17:35:48.300Z,14.03
2018-12-31T17:38:18.881Z,13.50
2018-12-31T17:40:49.525Z,20.07
2018-12-31T17:43:20.103Z,12.63
2018-12-31T17:45:50.672Z,15.20
2018-12-31T17:48:21.200Z,12.80
2018-12-31T17:50:51.798Z,11.30
2018-12-31T17:53:22.910Z,10.17
2018-12-31T17:55:53.445Z,14.33
2018-12-31T17:58:23.937Z,8.80
2018-12-31T18:00:54.442Z,10.30
2018-12-31T18:03:26.675Z,13.77
2018-12-31T18:05:57.278Z,10.70
2018-12-31T18:08:27.798Z,11.97
2018-12-31T18:10:58.314Z,10.20
2018-12-31T18:13:28.919Z,13.37
2018-12-31T18:15:59.432Z,12.33
2018-12-31T18:18:29.985Z,17.47
2018-12-31T18:21:00.577Z,16.63
2018-12-31T18:23:31.110Z,16.10
2018-12-31T18:26:01.651Z,16.17
2018-12-31T18:28:32.209Z,20.47
2018-12-31T18:31:02.720Z,15.37
2018-12-31T18:33:33.341Z,22.30
2018-12-31T18:36:03.876Z,25.33
2018-12-31T18:38:34.736Z,12.80
2018-12-31T18:41:05.353Z,17.33
2018-12-31T18:43:35.894Z,20.63
2018-12-31T18:46:06.471Z,26.13
2018-12-31T18:48:37.171Z,17.30
2018-12-31T18:51:07.730Z,17.70
2018-12-31T18:53:39.664Z,16.87
2018-12-31T18:56:10.356Z,19.10
2018-12-31T18:58:43.040Z,15.33
2018-12-31T19:01:13.916Z,15.63
2018-12-31T19:03:44.759Z,18.57
2018-12-31T19:06:15.281Z,21.63
2018-12-31T19:08:45.768Z,18.80
2018-12-31T19:11:17.040Z,19.73
2018-12-31T19:13:47.673Z,14.87
2018-12-31T19:16:18.250Z,20.03
2018-12-31T19:18:50.913Z,17.17
2018-12-31T19:21:21.506Z,15.73
2018-12-31T19:23:52.674Z,23.00
2018-12-31T19:26:23.204Z,13.77
2018-12-31T19:28:53.763Z,26.87
2018-12-31T19:31:24.277Z,16.77
2018-12-31T19:33:54.787Z,18.20
2018-12-31T19:36:25.352Z,17.67
2018-12-31T19:38:55.908Z,25.50
2018-12-31T19:41:26.396Z,15.53
2018-12-31T19:43:57.003Z,16.83
2018-12-31T19:46:27.680Z,13.73
2018-12-31T19:49:00.271Z,16.73
2018-12-31T19:51:30.817Z,9.47
2018-12-31T19:54:01.329Z,20.43
2018-12-31T19:56:31.938Z,14.37
2018-12-31T19:59:04.658Z,19.23
2018-12-31T20:01:35.104Z,16.30
2018-12-31T20:04:05.701Z,19.93
2018-12-31T20:06:36.298Z,17.10
2018-12-31T20:09:09.226Z,19.10
2018-12-31T20:11:39.746Z,14.27
2018-12-31T20:14:10.316Z,20.70
2018-12-31T20:16:40.864Z,21.50
2018-12-31T20:19:12.185Z,20.63
2018-12-31T20:21:42.770Z,26.43
2018-12-31T20:24:13.320Z,20.27
2018-12-31T20:26:43.871Z,15.83
2018-12-31T20:29:16.591Z,22.13
2018-12-31T20:31:47.167Z,28.37
2018-12-31T20:34:17.711Z,26.60
2018-12-31T20:36:48.893Z,21.67
2018-12-31T20:39:20.126Z,18.00
2018-12-31T20:41:50.623Z,22.20
2018-12-31T20:44:21.384Z,23.00
2018-12-31T20:46:55.522Z,24.60
2018-12-31T20:49:25.656Z,33.00
2018-12-31T20:51:56.240Z,19.03
2018-12-31T20:54:26.787Z,24.10
2018-12-31T20:56:58.532Z,19.87
2018-12-31T20:59:29.039Z,17.40
2018-12-31T21:01:59.603Z,25.87
2018-12-31T21:04:30.177Z,19.77
2018-12-31T21:07:00.682Z,19.20
2018-12-31T21:09:31.201Z,22.23
2018-12-31T21:12:01.748Z,28.60
2018-12-31T21:14:32.711Z,28.60
2018-12-31T21:17:03.343Z,20.60
2018-12-31T21:19:35.137Z,18.40
2018-12-31T21:22:06.312Z,17.50
2018-12-31T21:24:36.829Z,24.67
2018-12-31T21:27:07.381Z,21.43
2018-12-31T21:29:37.944Z,20.90
2018-12-31T21:32:08.503Z,29.00
2018-12-31T21:34:39.091Z,16.17
2018-12-31T21:37:10.227Z,17.27
2018-12-31T21:39:40.812Z,20.40
2018-12-31T21:42:11.395Z,21.13
2018-12-31T21:44:41.906Z,24.13
2018-12-31T21:47:12.458Z,24.30
2018-12-31T21:49:44.469Z,20.80
2018-12-31T21:52:15.025Z,28.80
2018-12-31T21:54:45.841Z,18.43
2018-12-31T21:57:18.153Z,25.57
2018-12-31T21:59:48.774Z,26.30
2018-12-31T22:02:19.308Z,19.93
2018-12-31T22:04:49.907Z,31.97
2018-12-31T22:07:20.508Z,32.60
2018-12-31T22:09:51.053Z,25.53
2018-12-31T22:12:21.588Z,28.60
2018-12-31T22:14:52.124Z,22.53
2018-12-31T22:17:23.057Z,31.40
2018-12-31T22:19:53.570Z,26.87
2018-12-31T22:22:24.099Z,25.37
2018-12-31T22:24:54.632Z,17.27
2018-12-31T22:27:25.184Z,24.13
2018-12-31T22:29:55.735Z,30.80
2018-12-31T22:32:26.239Z,25.60
2018-12-31T22:34:56.779Z,23.13
2018-12-31T22:37:27.250Z,32.83
2018-12-31T22:39:57.716Z,25.47
2018-12-31T22:42:28.271Z,23.97
2018-12-31T22:44:58.757Z,18.00
2018-12-31T22:47:29.423Z,21.80
2018-12-31T22:50:01.140Z,21.93
2018-12-31T22:52:31.975Z,23.53
2018-12-31T22:55:02.538Z,21.43
2018-12-31T22:57:33.476Z,22.13
2018-12-31T23:00:04.792Z,74.87
2018-12-31T23:02:35.939Z,18.90
2018-12-31T23:05:10.245Z,18.30
2018-12-31T23:07:41.731Z,18.53
2018-12-31T23:10:12.368Z,19.07
2018-12-31T23:12:44.397Z,24.20
2018-12-31T23:15:20.749Z,21.77
2018-12-31T23:17:51.705Z,21.33
2018-12-31T23:20:25.501Z,25.87
2018-12-31T23:22:58.331Z,21.87
2018-12-31T23:25:28.854Z,24.77
2018-12-31T23:27:59.410Z,34.60
2018-12-31T23:30:33.055Z,28.03
2018-12-31T23:33:03.616Z,37.10
2018-12-31T23:35:34.137Z,73.73
2018-12-31T23:38:04.721Z,95.90
2018-12-31T23:40:36.106Z,164.43
2018-12-31T23:43:06.864Z,183.77
2018-12-31T23:45:37.776Z,229.40
2018-12-31T23:48:08.345Z,258.77
2018-12-31T23:50:38.879Z,330.63
2018-12-31T23:53:09.447Z,340.43
2018-12-31T23:55:39.987Z,266.27
2018-12-31T23:58:10.533Z,323.63
